Current Conditions
Overcast
Conditions



Pressure
1020.32 (mb) - 30.13 (inHG)
Visibility

7.0 (mimiles) - 11.3 (km)
   Temperature
57  °F
14°C
55  °F
Dewpoint
94  %
 Humidity
   Wind Speed
5  mph
4  kts
8  km/h
2.2  m/s
   Wind Direction
 70°
East North
East
   Airport Data
KBHC
Location Baxley Municipal Airport 3 mi (4.83 km)
Metar :KBHC 261055Z AUTO 07004KT 7SM OVC007 14/13 A3013 RMK AO2
Sat 26th November 05:55 am
   Raw Metar Info
Raw METAR is the most common format in the world for the transmission of observational weather data. It is highly standardized through the International Civil Aviation Organization (ICAO), which allows it to be understood throughout most of the world.
   API Info
Data Provided by
https://www.checkwx.com/weather/KBHC
   © Info
CSS/SVG/PHP scripts were developed by weather34.com for use in the weather34 template © 2015-2022

Guide Info provided by Metar-Wikipedia